Latest Weather Observations for Lajamanu

IDD60801

Issued at 11:31 pm CST Thursday 5 March 2015 (issued every 30 minutes, with the page automatically refreshed every 10 minutes)

About weather observations | Map of weather stations | Latest weather observations for NT | Other Formats
Station Details ID: 014829 Name: LAJAMANU AIRPORT Lat: -18.33 Lon: 130.64 Height: 315.6 m
Data from the previous 72 hours. | See also: Recent months at Lajamanu
Date/Time
CST
Temp
°C
App
Temp
°C
Dew
Point
Rel
Hum
%
Delta-T
°C
Wind Press
QNH
hPa
Press
MSL
hPa
Rain
since 9 am
mm
Dir
 
Spd
km/h
Gust
km/h
Spd
kts
Gust
kts
05/11:30pm 29.0 31.9 21.7 64 5.0 SSE 9 13 5 7 1011.0 1008.8 0.8
05/11:00pm 29.4 31.3 21.4 62 5.4 SE 13 15 7 8 1011.0 1008.8 0.8
05/10:30pm 29.7 31.5 21.1 60 5.8 SE 13 17 7 9 1011.0 1008.8 0.8
05/10:00pm 30.2 31.8 20.7 56 6.4 SE 13 17 7 9 1010.7 1008.4 0.8
05/09:30pm 30.5 32.3 20.4 54 6.8 SE 11 15 6 8 1010.3 1008.0 0.8
05/09:00pm 30.4 32.8 20.9 57 6.4 SSE 9 13 5 7 1009.9 1007.6 0.8
05/08:30pm 30.8 33.4 20.4 54 7.0 S 7 9 4 5 1009.7 1007.4 0.8
05/08:00pm 31.3 33.8 20.3 52 7.4 SSE 7 9 4 5 1009.5 1007.2 0.8
05/07:30pm 31.7 34.1 20.0 50 7.8 SSE 7 11 4 6 1009.2 1007.0 0.8
05/07:00pm 32.6 33.8 19.1 44 9.0 SSE 11 15 6 8 1008.7 1006.5 0.8
05/06:30pm 33.8 34.4 19.5 43 9.6 SSE 15 22 8 12 1008.3 1006.1 0.8
05/06:00pm 34.4 34.9 18.4 38 10.6 SSE 13 17 7 9 1008.3 1006.1 0.8
05/05:30pm 35.2 35.1 18.7 37 11.0 SSE 17 24 9 13 1008.3 1006.1 0.8
05/05:00pm 33.7 34.6 20.1 44 9.2 SSE 15 24 8 13 1008.5 1006.3 0.8
05/04:30pm 33.8 34.0 20.2 44 9.2 SE 19 26 10 14 1008.6 1006.4 0.8
05/04:00pm 35.5 34.4 17.2 33 11.9 SE 19 26 10 14 1008.4 1006.2 0.8
05/03:30pm 36.0 36.3 20.3 40 10.7 SE 19 28 10 15 1008.6 1006.4 0.8
05/03:00pm 35.0 34.1 18.1 36 11.1 SE 20 32 11 17 1009.1 1006.9 0.8
05/02:30pm 36.0 35.6 19.4 37 11.1 ESE 20 28 11 15 1009.5 1007.2 0.8
05/02:00pm 35.8 35.8 19.7 39 10.8 SE 19 30 10 16 1010.0 1007.7 0.8
05/01:30pm 34.6 35.9 21.6 46 8.9 SE 17 32 9 17 1009.9 1007.6 0.8
05/01:00pm 31.2 34.6 24.1 66 5.0 ESE 13 22 7 12 1011.2 1009.0 0.8
05/12:33pm 29.4 29.7 23.6 71 4.0 SE 28 46 15 25 1011.8 1009.6 0.4
05/12:30pm 29.4 28.6 23.1 69 4.4 SE 32 46 17 25 1011.8 1009.6 0.4
05/12:23pm 31.3 30.6 20.3 52 7.4 SE 24 46 13 25 1011.6 1009.4 0.0
05/12:00pm 35.5 36.1 19.4 38 10.8 SE 15 22 8 12 1011.5 1009.3 0.0
05/11:30am 34.6 36.1 19.0 39 10.4 S 9 13 5 7 1011.9 1009.7 0.0
05/11:00am 35.4 38.0 20.5 41 10.1 SSE 7 15 4 8 1012.0 1009.8 0.0
05/10:30am 34.2 36.9 19.4 41 9.9 ESE 4 7 2 4 1012.0 1009.8 0.0
05/10:00am 33.3 37.6 21.1 48 8.3 CALM 0 0 0 0 1011.9 1009.7 0.0
05/09:30am 31.7 34.6 20.6 51 7.5 WSW 6 9 3 5 1011.9 1009.7 0.0
05/09:00am 30.7 34.2 21.8 59 6.1 WSW 6 9 3 5 1011.8 1009.6 0.0
05/08:30am 29.3 32.9 22.0 64 5.0 WNW 6 9 3 5 1011.6 1009.4 0.0
05/08:00am 28.0 32.1 22.2 70 4.0 WNW 4 7 2 4 1011.4 1009.2 0.0
05/07:30am 26.5 31.4 22.3 78 2.9 CALM 0 0 0 0 1011.2 1009.0 0.0
05/07:00am 25.2 29.9 21.9 82 2.2 CALM 0 0 0 0 1010.6 1008.3 0.0
05/06:30am 25.5 29.6 22.2 82 2.2 W 4 7 2 4 1010.5 1008.2 0.0
05/06:00am 25.4 29.5 22.3 83 2.1 WNW 4 7 2 4 1010.1 1007.8 0.0
05/05:30am 25.5 30.2 22.6 84 2.0 NW 2 7 1 4 1009.6 1007.3 0.0
05/05:00am 25.5 29.1 22.0 81 2.4 NW 6 7 3 4 1009.5 1007.2 0.0
05/04:30am 25.3 29.9 21.8 81 2.4 CALM 0 0 0 0 1009.1 1006.9 0.0
05/04:00am 25.9 30.8 22.4 81 2.4 CALM 0 0 0 0 1009.1 1006.9 0.0
05/03:30am 25.8 30.5 21.9 79 2.6 CALM 0 0 0 0 1008.9 1006.7 0.0
05/03:00am 26.4 31.1 22.0 77 3.0 CALM 0 6 0 3 1009.0 1006.8 0.0
05/02:30am 26.5 30.2 20.8 71 3.8 N 2 7 1 4 1009.3 1007.1 0.0
05/02:00am 28.1 31.8 21.4 67 4.5 NNE 4 7 2 4 1009.9 1007.6 0.0
05/01:30am 29.0 31.2 20.4 59 5.7 N 9 11 5 6 1010.3 1008.0 0.0
05/01:00am 29.5 31.2 20.1 57 6.3 NNE 11 15 6 8 1010.8 1008.5 0.0
05/12:30am 30.0 31.9 19.7 54 6.8 NNE 9 13 5 7 1011.0 1008.8 0.0
05/12:00am 30.2 32.5 19.9 54 6.9 NE 7 9 4 5 1011.0 1008.8 0.0
 
Date/Time
CST
Temp
°C
App
Temp
°C
Dew
Point
Rel
Hum
%
Delta-T
°C
Wind Press
QNH
hPa
Press
MSL
hPa
Rain
since 9 am
mm
Dir
 
Spd
km/h
Gust
km/h
Spd
kts
Gust
kts
04/11:30pm 30.4 32.6 19.7 52 7.1 NE 7 9 4 5 1011.1 1008.9 0.0
04/11:00pm 30.0 32.4 20.0 55 6.7 NE 7 9 4 5 1011.2 1009.0 0.0
04/10:30pm 29.6 31.7 19.0 53 7.0 ENE 6 7 3 4 1011.2 1009.0 0.0
04/10:00pm 30.3 32.5 19.3 51 7.3 NE 6 7 3 4 1011.0 1008.8 0.0
04/09:30pm 30.0 32.2 19.1 52 7.2 E 6 7 3 4 1010.4 1008.1 0.0
04/09:00pm 30.0 32.0 18.8 51 7.3 E 6 7 3 4 1010.0 1007.7 0.0
04/08:30pm 30.4 32.2 18.8 50 7.6 E 7 9 4 5 1009.5 1007.2 0.0
04/08:00pm 31.0 32.4 18.7 48 8.1 E 9 11 5 6 1008.9 1006.7 0.0
04/07:30pm 31.7 32.9 18.3 45 8.8 E 9 11 5 6 1008.6 1006.4 0.0
04/07:00pm 33.0 33.6 17.6 40 10.0 E 11 15 6 8 1008.3 1006.1 0.0
04/06:30pm 34.5 34.2 16.4 34 11.6 E 13 17 7 9 1008.1 1005.9 0.0
04/06:00pm 35.3 34.8 17.0 33 11.9 E 15 20 8 11 1008.0 1005.7 0.0
04/05:30pm 36.0 35.2 16.2 31 12.8 E 15 24 8 13 1007.9 1005.6 0.0
04/05:00pm 36.4 36.2 17.5 32 12.4 NE 15 28 8 15 1007.9 1005.6 0.0
04/04:30pm 36.1 35.6 16.8 32 12.5 ENE 15 24 8 13 1008.0 1005.7 0.0
04/04:00pm 36.7 35.4 17.3 31 12.7 ENE 20 26 11 14 1008.2 1006.0 0.0
04/03:30pm 36.2 35.9 16.4 31 12.8 NNE 13 22 7 12 1008.3 1006.1 0.0
04/03:00pm 36.5 36.5 18.1 33 12.2 NE 15 22 8 12 1008.5 1006.3 0.0
04/02:30pm 36.4 36.2 17.5 32 12.4 ENE 15 24 8 13 1008.9 1006.7 0.0
04/02:00pm 36.0 35.2 17.2 33 12.2 ENE 17 28 9 15 1009.3 1007.1 0.0
04/01:30pm 35.9 35.9 18.9 36 11.3 ENE 17 30 9 16 1009.7 1007.4 0.0
04/01:00pm 35.3 35.6 18.8 37 11.0 NE 15 32 8 17 1010.2 1007.9 0.0
04/12:30pm 35.3 36.0 20.4 41 10.1 ENE 17 28 9 15 1010.7 1008.4 0.0
04/12:00pm 34.3 34.9 19.5 41 9.9 ENE 15 22 8 12 1011.1 1008.9 0.0
04/11:30am 33.6 34.8 20.7 46 8.8 ENE 15 24 8 13 1011.3 1009.1 0.0
04/11:00am 32.6 33.3 20.5 49 8.2 NE 17 24 9 13 1011.3 1009.1 0.0
04/10:30am 32.0 33.0 20.3 50 7.9 ENE 15 20 8 11 1011.4 1009.2 0.0
04/10:00am 31.2 32.3 20.5 53 7.2 NNE 15 20 8 11 1011.2 1009.0 0.0
04/09:30am 31.0 32.3 20.9 55 6.8 NE 15 20 8 11 1011.3 1009.1 0.0
04/09:00am 30.6 32.8 21.9 59 6.0 ENE 13 20 7 11 1011.1 1008.9 0.0
04/08:30am 29.7 32.4 22.2 64 5.1 E 11 17 6 9 1010.9 1008.7 0.0
04/08:00am 28.2 31.9 23.3 75 3.4 ESE 9 11 5 6 1010.5 1008.2 0.0
04/07:30am 26.7 30.6 23.6 83 2.1 ESE 9 11 5 6 1010.2 1007.9 0.0
04/07:00am 25.8 29.2 22.7 83 2.1 ESE 9 11 5 6 1010.0 1007.7 0.0
04/06:30am 25.9 28.6 22.2 80 2.5 E 11 13 6 7 1009.6 1007.3 0.0
04/06:00am 26.7 30.4 22.3 77 3.0 SE 6 7 3 4 1008.9 1006.7 0.0
04/05:30am 26.9 30.5 22.3 76 3.1 E 7 7 4 4 1008.8 1006.6 0.0
04/05:00am 27.3 30.6 22.5 75 3.3 SE 9 11 5 6 1008.3 1006.1 0.0
04/04:30am 27.1 31.0 22.5 76 3.1 W 6 11 3 6 1007.5 1005.2 0.0
04/04:00am 27.5 32.4 22.4 73 3.5 CALM 0 0 0 0 1008.2 1006.0 0.0
04/03:30am 27.5 32.3 22.2 73 3.6 CALM 0 6 0 3 1007.9 1005.6 0.0
04/03:00am 27.9 31.4 21.9 70 4.1 N 6 7 3 4 1008.2 1006.0 0.0
04/02:30am 28.3 31.3 21.3 65 4.7 ENE 7 9 4 5 1008.8 1006.6 0.0
04/02:00am 28.5 31.4 21.0 64 5.0 ENE 7 13 4 7 1009.1 1006.9 0.0
04/01:30am 29.1 31.6 21.1 62 5.4 ENE 9 15 5 8 1009.1 1006.9 0.0
04/01:00am 29.6 31.6 20.7 58 6.0 NE 11 15 6 8 1009.1 1006.9 0.0
04/12:30am 29.6 31.2 20.7 58 6.0 NE 13 17 7 9 1009.5 1007.2 0.0
04/12:00am 30.0 31.1 20.5 56 6.4 NE 15 20 8 11 1009.8 1007.5 0.0
 
Date/Time
CST
Temp
°C
App
Temp
°C
Dew
Point
Rel
Hum
%
Delta-T
°C
Wind Press
QNH
hPa
Press
MSL
hPa
Rain
since 9 am
mm
Dir
 
Spd
km/h
Gust
km/h
Spd
kts
Gust
kts
03/11:30pm 30.3 31.7 21.1 58 6.2 NE 15 19 8 10 1009.9 1007.6 0.0
03/11:00pm 30.5 32.5 21.6 59 6.1 NE 13 20 7 11 1010.1 1007.8 0.0
03/10:30pm 30.1 33.1 22.0 62 5.5 NE 9 13 5 7 1009.7 1007.4 0.0
03/10:00pm 30.3 32.8 21.7 60 5.9 NNE 11 13 6 7 1009.2 1007.0 0.0
03/09:30pm 30.8 33.5 21.3 57 6.5 NNE 9 13 5 7 1008.8 1006.6 0.0
03/09:00pm 30.8 33.5 21.3 57 6.5 NNE 9 13 5 7 1008.4 1006.2 0.0
03/08:30pm 31.1 33.9 21.6 57 6.5 NNE 9 11 5 6 1007.9 1005.6 0.0
03/08:00pm 31.2 33.9 21.4 56 6.7 NNE 9 11 5 6 1007.5 1005.2 0.0
03/07:30pm 31.9 33.9 20.8 51 7.5 NNE 11 15 6 8 1007.2 1004.9 0.0
03/07:00pm 33.0 33.6 20.2 47 8.6 NNE 17 26 9 14 1006.8 1004.5 0.0
03/06:30pm 34.5 34.1 19.3 40 10.2 ENE 20 26 11 14 1006.4 1004.1 0.0
03/06:00pm 34.9 34.7 19.7 41 10.2 ENE 20 30 11 16 1006.0 1003.8 0.0
03/05:30pm 35.4 35.2 19.7 39 10.6 E 20 28 11 15 1005.7 1003.5 0.0
03/05:00pm 35.7 35.1 20.4 40 10.4 ENE 24 41 13 22 1005.9 1003.7 0.0
03/04:30pm 35.6 35.3 20.3 40 10.4 ENE 22 32 12 17 1005.8 1003.6 0.0
03/04:00pm 35.4 35.6 20.5 41 10.1 E 20 30 11 16 1006.4 1004.1 0.0
03/03:30pm 35.2 35.7 21.1 43 9.7 ENE 20 28 11 15 1006.7 1004.4 0.0
03/03:00pm 35.6 35.9 20.7 41 10.2 E 20 33 11 18 1007.0 1004.7 0.0
03/02:30pm 36.3 37.6 21.7 42 10.1 ENE 17 22 9 12 1007.1 1004.8 0.0
03/02:00pm 35.3 36.7 21.9 45 9.3 E 17 26 9 14 1007.6 1005.3 0.0
03/01:30pm 34.4 35.6 21.4 46 8.9 ENE 17 26 9 14 1008.1 1005.9 0.0
03/01:00pm 35.1 37.2 23.1 49 8.4 E 17 24 9 13 1008.6 1006.4 0.0
03/12:30pm 33.7 35.8 22.5 52 7.8 E 15 24 8 13 1009.0 1006.8 0.0
03/12:00pm 33.5 35.5 22.9 53 7.4 ENE 17 24 9 13 1009.6 1007.3 0.0
03/11:30am 34.0 37.0 23.4 54 7.4 NE 13 20 7 11 1009.8 1007.5 0.0
03/11:00am 32.9 35.8 22.4 54 7.3 ENE 11 19 6 10 1010.1 1007.8 0.0
03/10:30am 31.9 34.9 22.6 58 6.4 E 11 22 6 12 1010.0 1007.7 0.0
03/10:00am 31.3 33.9 22.6 60 6.0 ENE 13 19 7 10 1010.1 1007.8 0.0
03/09:30am 29.8 32.8 23.3 68 4.5 ESE 13 17 7 9 1010.3 1008.0 0.0
03/09:00am 28.8 32.6 23.5 73 3.7 ESE 9 13 5 7 1010.0 1007.7 0.0
03/08:30am 28.2 32.3 24.0 78 2.9 ESE 9 13 5 7 1009.6 1007.3 0.0
03/08:00am 26.9 30.8 23.6 82 2.3 ESE 9 13 5 7 1009.1 1006.9 0.0
03/07:30am 26.4 30.2 23.5 84 2.0 SE 9 13 5 7 1008.6 1006.4 0.0
03/07:00am 26.1 30.4 23.6 86 1.7 SSE 7 9 4 5 1008.1 1005.9 0.0
03/06:30am 26.1 30.4 23.6 86 1.7 SSE 7 9 4 5 1007.6 1005.3 0.0
03/06:00am 26.1 30.5 23.8 87 1.6 SSE 7 9 4 5 1007.3 1005.0 0.0
03/05:30am 26.3 30.8 24.0 87 1.6 S 7 9 4 5 1007.1 1004.8 0.0
03/05:00am 26.4 31.2 24.1 87 1.6 SSW 6 9 3 5 1007.1 1004.8 0.0
03/04:30am 26.5 31.4 24.7 90 1.3 S 7 9 4 5 1006.9 1004.6 0.0
03/04:00am 26.2 32.3 24.4 90 1.3 CALM 0 0 0 0 1006.6 1004.3 0.0
03/03:30am 26.2 32.2 24.2 89 1.4 CALM 0 0 0 0 1006.7 1004.4 0.0
03/03:00am 26.5 32.5 24.3 88 1.5 CALM 0 0 0 0 1006.7 1004.4 0.0
03/02:30am 26.6 31.5 24.3 87 1.6 SSE 6 7 3 4 1006.8 1004.5 0.0
03/02:00am 26.6 32.6 24.3 87 1.6 CALM 0 0 0 0 1007.4 1005.1 0.0
03/01:30am 26.8 31.9 24.6 88 1.5 SSW 6 7 3 4 1007.8 1005.5 0.0
03/01:00am 26.6 31.7 24.6 89 1.4 SSW 6 9 3 5 1008.3 1006.1 0.0
03/12:30am 26.4 31.2 24.1 87 1.6 WNW 6 7 3 4 1008.5 1006.3 0.0
03/12:00am 26.5 31.1 23.8 85 1.9 NW 6 7 3 4 1008.7 1006.5 0.0

Other Formats:

Comma delimited format used in spreadsheet applications
http://www.bom.gov.au/fwo/IDD60801/IDD60801.94231.axf

JavaScript Object Notation format (JSON) in row-major order
http://www.bom.gov.au/fwo/IDD60801/IDD60801.94231.json